• Join FlightAware (Why Join?)
  • Login
  • US Flag 
05:26AM EDT


 

Airport Tracker/Info


-or-


 

Live Flight TrackerFlight Track Log ✈ CFH26 ✈ 15-Jul-2013 ✈ YRNG / RAM - YPGV / GOV

Flight Track Log - Related Links

Times and Time Zones

All times are in EDT time to prevent confusion due to time zone crossing. See the CFH26 flight status page for this flight to view local times or setup timezone preferences in your user account.

Time Position Orientation Groundspeed Altitude Reporting Facility
EDT Latitude Longitude Course Direction KTS MPH feet Rate Location/Type
08:54PM -12.3540 134.9576 87° East 400  Level Aus ATC (Calculated)
08:55PM -12.3515 135.0158 87° East 200  Descending Aus ATC (Calculated)
08:56PM -12.3490 135.0721 88° East 400 300 Climbing Aus ATC (Calculated)
08:58PM -12.3448 135.1690 88° East  Level FlightAware Approximate
08:58PM -12.3420 135.2358 360° North 200  Level Aus ATC (Calculated)
08:59PM -12.3420 135.2358 87° East 400 360 Climbing Aus ATC (Calculated)
09:00PM -12.3398 135.2864 87° East  Level FlightAware Approximate
09:01PM -12.3376 135.3370 87° East  Level FlightAware Approximate
09:02PM -12.3354 135.3875 87° East  Level FlightAware Approximate
09:02PM -12.3334 135.4337 87° East 200  Level Aus ATC (Calculated)
09:03PM -12.3312 135.4843 87° East  Level FlightAware Approximate
09:04PM -12.3289 135.5349 87° East  Level FlightAware Approximate
09:04PM -12.3252 135.6066 266° West 400  Level Aus ATC (Calculated)
09:05PM -12.3267 135.5854 87° East  Level FlightAware Approximate
09:06PM -12.3230 135.6580 87° East  Level FlightAware Approximate
09:07PM -12.3207 135.7086 87° East  Level FlightAware Approximate
09:08PM -12.3185 135.7591 87° East  Level FlightAware Approximate
09:09PM -12.3162 135.8097 87° East  Level FlightAware Approximate
09:10PM -12.3140 135.8603 87° East  Level FlightAware Approximate
09:10PM -12.3089 135.9663 87° East 200  Level Aus ATC (Calculated)
09:12PM -12.3061 136.0287 87° East  Level FlightAware Approximate
09:12PM -12.3036 136.0726 92° East 400  Level Aus ATC (Calculated)
09:13PM -12.3038 136.0792 87° East  Level FlightAware Approximate
09:14PM -12.3013 136.1240 87° East  Level FlightAware Approximate
09:15PM -12.2990 136.1746 87° East  Level FlightAware Approximate
09:15PM -12.2952 136.2590 267° West 200  Level Aus ATC (Calculated)
09:16PM -12.2967 136.2251 87° East  Level FlightAware Approximate
09:17PM -12.2928 136.3112 87° East  Level FlightAware Approximate
09:18PM -12.2905 136.3618 87° East  Level FlightAware Approximate
09:18PM -12.2840 136.4680 266° West 400  Level Aus ATC (Calculated)
09:19PM -12.2882 136.4124 87° East  Level FlightAware Approximate
09:20PM -12.2818 136.5203 88° East  Level FlightAware Approximate
09:21PM -12.2797 136.5709 88° East  Level FlightAware Approximate
09:21PM -12.2767 136.6432 268° West 200  Level Aus ATC (Calculated)
09:22PM -12.2776 136.6214 88° East  Level FlightAware Approximate
09:23PM -12.2745 136.6955 88° East  Level FlightAware Approximate
09:23PM -12.2709 136.7298 95° East 400  Level Aus ATC (Calculated)
09:24PM -12.2724 136.7460 88° East  Level FlightAware Approximate
09:24PM -12.2693 136.8183 130° Southeast 400  Level Aus ATC (Calculated)
09:26PM -12.2739 136.8239 North  Level Estimated